Time;durP1;ratioP1;P1;durP2;ratioP2;P2;SDS_P1;SDS_P2;PMS_P1;PMS_P2;Temp;Humidity;BMP_temperature;BMP_pressure;BME280_temperature;BME280_humidity;BME280_pressure;Samples;Min_cycle;Max_cycle;Signal;HPM_P1;HPM_P2
2021/06/13 00:01:53;;;;;;;496.45;356.70;;;;;;;;;;4992149;28;20034;-73
2021/06/13 00:04:19;;;;;;;496.20;361.80;;;;;;;;;;4971574;28;20026;-73
2021/06/13 00:06:46;;;;;;;497.45;361.73;;;;;;;;;;4984569;28;20026;-73
2021/06/13 00:09:12;;;;;;;495.80;360.75;;;;;;;;;;4984661;28;20594;-73
2021/06/13 00:11:38;;;;;;;496.05;364.15;;;;;;;;;;4985960;28;20161;-74
2021/06/13 00:14:05;;;;;;;491.88;354.10;;;;;;;;;;4964093;28;20128;-74
2021/06/13 00:16:31;;;;;;;496.70;362.48;;;;;;;;;;4990380;28;20030;-74
2021/06/13 00:19:12;;;;;;;494.92;359.98;;;;;;;;;;4989442;28;20030;-74
2021/06/13 00:21:38;;;;;;;492.30;355.15;;;;;;;;;;4980651;28;20045;-73
2021/06/13 00:24:05;;;;;;;496.85;367.75;;;;;;;;;;4980260;28;20019;-74
2021/06/13 00:26:31;;;;;;;497.77;357.58;;;;;;;;;;4967746;28;20030;-74
2021/06/13 00:28:57;;;;;;;496.05;361.30;;;;;;;;;;4989721;28;20027;-73
2021/06/13 00:31:25;;;;;;;495.52;362.67;;;;;;;;;;4989511;28;20030;-73
2021/06/13 00:33:51;;;;;;;492.15;360.08;;;;;;;;;;4970645;28;20074;-73
2021/06/13 00:36:17;;;;;;;495.85;367.00;;;;;;;;;;4979653;28;20043;-74
2021/06/13 00:38:43;;;;;;;495.10;365.52;;;;;;;;;;4983505;28;20037;-73
2021/06/13 00:41:09;;;;;;;492.65;360.77;;;;;;;;;;4969932;28;20022;-73
2021/06/13 00:43:38;;;;;;;495.02;361.40;;;;;;;;;;4991564;28;20026;-74
2021/06/13 00:46:04;;;;;;;492.60;359.73;;;;;;;;;;4967600;28;20058;-73
2021/06/13 00:48:30;;;;;;;492.65;359.00;;;;;;;;;;4983305;28;20214;-74
2021/06/13 00:50:56;;;;;;;496.88;358.63;;;;;;;;;;4967213;28;20030;-73
2021/06/13 00:53:22;;;;;;;502.33;366.10;;;;;;;;;;4982983;28;20026;-73
2021/06/13 00:55:55;;;;;;;501.35;366.33;;;;;;;;;;4971295;28;20573;-73
2021/06/13 00:58:21;;;;;;;504.10;373.85;;;;;;;;;;4977868;28;20023;-73
2021/06/13 01:00:47;;;;;;;504.70;366.25;;;;;;;;;;4973146;28;20037;-73
2021/06/13 01:03:13;;;;;;;507.13;375.35;;;;;;;;;;4961810;28;20030;-73
2021/06/13 01:05:39;;;;;;;508.52;368.15;;;;;;;;;;4966704;28;20023;-73
2021/06/13 01:08:27;;;;;;;512.60;373.58;;;;;;;;;;4982828;28;20034;-73
2021/06/13 01:11:13;;;;;;;512.47;366.77;;;;;;;;;;4989102;28;20508;-73
2021/06/13 01:13:54;;;;;;;508.13;366.55;;;;;;;;;;4986105;28;20041;-73
2021/06/13 01:16:20;;;;;;;508.77;367.05;;;;;;;;;;4981738;28;20458;-74
2021/06/13 01:18:51;;;;;;;502.33;364.20;;;;;;;;;;4989808;28;20029;-73
2021/06/13 01:21:20;;;;;;;534.90;387.48;;;;;;;;;;4968750;28;20459;-73
2021/06/13 01:24:12;;;;;;;512.05;367.00;;;;;;;;;;4984449;28;20034;-73
2021/06/13 01:26:44;;;;;;;500.42;357.90;;;;;;;;;;4990587;28;20049;-73
2021/06/13 01:29:16;;;;;;;498.08;360.40;;;;;;;;;;4973876;28;20381;-74
2021/06/13 01:31:51;;;;;;;493.90;352.45;;;;;;;;;;4977347;28;20030;-74
2021/06/13 01:34:23;;;;;;;499.95;362.67;;;;;;;;;;4986417;28;20056;-73
2021/06/13 01:36:50;;;;;;;500.83;364.33;;;;;;;;;;4965055;28;20518;-73
2021/06/13 01:39:50;;;;;;;500.58;366.27;;;;;;;;;;4985323;28;20480;-74
2021/06/13 01:42:16;;;;;;;502.23;357.75;;;;;;;;;;4986135;28;20501;-73
2021/06/13 01:44:44;;;;;;;502.00;362.23;;;;;;;;;;4978981;28;20032;-74
2021/06/13 01:47:10;;;;;;;523.30;374.50;;;;;;;;;;4991409;28;20377;-73
2021/06/13 01:49:38;;;;;;;524.58;381.63;;;;;;;;;;4989057;28;20049;-73
2021/06/13 01:52:04;;;;;;;524.35;376.83;;;;;;;;;;4986700;28;20034;-73
2021/06/13 01:54:31;;;;;;;505.33;364.73;;;;;;;;;;4990826;28;20034;-73
2021/06/13 01:56:57;;;;;;;522.03;373.30;;;;;;;;;;4991279;28;20027;-73
2021/06/13 01:59:24;;;;;;;518.72;369.27;;;;;;;;;;4972264;28;20018;-73
2021/06/13 02:01:53;;;;;;;502.52;363.48;;;;;;;;;;4980839;28;20027;-73
2021/06/13 02:04:19;;;;;;;503.92;364.50;;;;;;;;;;4986313;28;20023;-74
2021/06/13 02:06:49;;;;;;;517.20;369.83;;;;;;;;;;4989898;28;20049;-73
2021/06/13 02:09:18;;;;;;;514.85;365.02;;;;;;;;;;4986085;28;20042;-73
2021/06/13 02:11:46;;;;;;;518.17;367.13;;;;;;;;;;4989691;28;20079;-73
2021/06/13 02:14:13;;;;;;;511.83;363.77;;;;;;;;;;4990282;28;20065;-73
2021/06/13 02:16:40;;;;;;;513.28;364.63;;;;;;;;;;4956917;28;20038;-74
2021/06/13 02:19:07;;;;;;;514.53;361.42;;;;;;;;;;4970810;28;20044;-74
2021/06/13 02:21:33;;;;;;;516.95;369.38;;;;;;;;;;4989072;28;20026;-74
2021/06/13 02:23:59;;;;;;;510.45;362.30;;;;;;;;;;5038162;28;20374;-73
2021/06/13 02:26:56;;;;;;;526.83;375.33;;;;;;;;;;4980352;28;20027;-73
2021/06/13 02:29:22;;;;;;;524.33;363.38;;;;;;;;;;4965942;28;20054;-73
2021/06/13 02:31:49;;;;;;;759.95;424.90;;;;;;;;;;5008155;28;20030;-73
2021/06/13 02:34:20;;;;;;;555.45;385.40;;;;;;;;;;4992111;28;20073;-73
2021/06/13 02:36:47;;;;;;;631.63;449.73;;;;;;;;;;5006328;28;20115;-73
2021/06/13 02:39:20;;;;;;;626.00;448.67;;;;;;;;;;4988591;28;20031;-73
2021/06/13 02:41:47;;;;;;;648.15;460.23;;;;;;;;;;4993760;28;20030;-76
2021/06/13 02:44:13;;;;;;;824.53;554.63;;;;;;;;;;5001645;28;20038;-76
2021/06/13 02:46:39;;;;;;;691.30;552.65;;;;;;;;;;4979690;28;20101;-75
2021/06/13 02:49:06;;;;;;;637.63;442.23;;;;;;;;;;4989514;28;20030;-75
2021/06/13 02:51:34;;;;;;;739.15;479.15;;;;;;;;;;5041995;28;20031;-75
2021/06/13 02:54:01;;;;;;;528.25;364.13;;;;;;;;;;4980768;28;20053;-75
2021/06/13 02:56:36;;;;;;;534.83;367.65;;;;;;;;;;4980230;28;20030;-75
2021/06/13 02:59:10;;;;;;;525.15;359.50;;;;;;;;;;4961630;28;20034;-76
2021/06/13 03:01:39;;;;;;;558.85;387.27;;;;;;;;;;4965310;28;20381;-75
2021/06/13 03:04:05;;;;;;;815.67;509.13;;;;;;;;;;5024229;28;20450;-75
2021/06/13 03:06:32;;;;;;;798.20;489.13;;;;;;;;;;4992452;28;20038;-73
2021/06/13 03:08:58;;;;;;;688.40;474.48;;;;;;;;;;4992540;28;20030;-75
2021/06/13 03:11:25;;;;;;;633.70;429.65;;;;;;;;;;4969980;28;20080;-75
2021/06/13 03:13:52;;;;;;;541.53;368.38;;;;;;;;;;5045423;28;20027;-73
2021/06/13 03:16:19;;;;;;;537.97;366.00;;;;;;;;;;4998282;28;20381;-74
2021/06/13 03:18:47;;;;;;;527.85;357.02;;;;;;;;;;5020231;28;20020;-73
2021/06/13 03:21:13;;;;;;;527.60;364.60;;;;;;;;;;5007995;28;20406;-73
2021/06/13 03:23:40;;;;;;;536.28;363.60;;;;;;;;;;4993295;28;20102;-73
2021/06/13 03:26:07;;;;;;;533.50;361.48;;;;;;;;;;4995619;28;20020;-73
2021/06/13 03:28:34;;;;;;;532.15;355.23;;;;;;;;;;5005317;28;20034;-73
2021/06/13 03:31:13;;;;;;;539.38;367.23;;;;;;;;;;4994691;28;20028;-75
2021/06/13 03:33:39;;;;;;;532.63;358.33;;;;;;;;;;4987516;28;20419;-75
2021/06/13 03:36:05;;;;;;;530.92;360.02;;;;;;;;;;5003272;28;20417;-73
2021/06/13 03:38:32;;;;;;;533.55;362.58;;;;;;;;;;4999582;28;20020;-73
2021/06/13 03:40:59;;;;;;;532.33;357.67;;;;;;;;;;4991363;28;20132;-75
2021/06/13 03:43:27;;;;;;;533.35;361.45;;;;;;;;;;5030106;28;20382;-75
2021/06/13 03:45:54;;;;;;;535.22;356.55;;;;;;;;;;5058788;28;20497;-76
2021/06/13 03:48:20;;;;;;;533.30;361.45;;;;;;;;;;5007754;28;20030;-76
2021/06/13 03:50:47;;;;;;;528.75;363.45;;;;;;;;;;5006264;28;20027;-75
2021/06/13 03:53:13;;;;;;;538.08;364.02;;;;;;;;;;4981884;28;20031;-74
2021/06/13 03:55:44;;;;;;;524.15;349.58;;;;;;;;;;4992413;28;20027;-75
2021/06/13 03:58:11;;;;;;;518.83;350.55;;;;;;;;;;4988974;28;20026;-75
2021/06/13 04:00:38;;;;;;;524.67;359.27;;;;;;;;;;4990785;28;20488;-75
2021/06/13 04:03:05;;;;;;;515.97;345.70;;;;;;;;;;5010835;28;20148;-75
2021/06/13 04:05:31;;;;;;;525.75;340.67;;;;;;;;;;4988055;28;20390;-75
2021/06/13 04:08:00;;;;;;;520.17;348.05;;;;;;;;;;4988131;28;20105;-76
2021/06/13 04:10:26;;;;;;;518.13;339.48;;;;;;;;;;4993814;28;20108;-75
2021/06/13 04:12:53;;;;;;;521.88;353.98;;;;;;;;;;4988091;28;20305;-75
2021/06/13 04:15:21;;;;;;;516.33;345.13;;;;;;;;;;5017312;28;20343;-75
2021/06/13 04:17:47;;;;;;;516.08;343.67;;;;;;;;;;4989297;28;20030;-75
2021/06/13 04:20:19;;;;;;;512.03;337.67;;;;;;;;;;5013077;28;20462;-75
2021/06/13 04:22:45;;;;;;;516.75;353.40;;;;;;;;;;4988732;28;20034;-75
2021/06/13 04:25:13;;;;;;;536.58;362.77;;;;;;;;;;4975753;28;20043;-75
2021/06/13 04:27:39;;;;;;;525.80;348.90;;;;;;;;;;5005253;28;20018;-75
2021/06/13 04:30:07;;;;;;;519.92;348.17;;;;;;;;;;4986644;28;20030;-76
2021/06/13 04:32:33;;;;;;;524.72;346.55;;;;;;;;;;5009708;28;20080;-75
2021/06/13 04:35:00;;;;;;;528.33;364.02;;;;;;;;;;5054596;28;20040;-75
2021/06/13 04:37:26;;;;;;;519.92;354.23;;;;;;;;;;5073943;28;20028;-75
2021/06/13 04:39:52;;;;;;;524.85;354.42;;;;;;;;;;5073123;28;20104;-75
2021/06/13 04:42:20;;;;;;;527.40;351.30;;;;;;;;;;5069984;28;20504;-75
2021/06/13 04:44:46;;;;;;;523.33;358.83;;;;;;;;;;5073295;28;20364;-75
2021/06/13 04:47:12;;;;;;;517.65;348.75;;;;;;;;;;5077829;28;20532;-74
2021/06/13 04:49:38;;;;;;;519.42;352.50;;;;;;;;;;5061444;28;20080;-75
2021/06/13 04:52:06;;;;;;;513.70;349.05;;;;;;;;;;5082986;28;20032;-74
2021/06/13 04:54:57;;;;;;;518.70;350.27;;;;;;;;;;5074239;28;20085;-75
2021/06/13 04:57:26;;;;;;;515.15;349.52;;;;;;;;;;5056478;28;20115;-75
2021/06/13 04:59:52;;;;;;;516.70;362.60;;;;;;;;;;5062832;28;20061;-74
2021/06/13 05:02:18;;;;;;;514.53;350.02;;;;;;;;;;5052925;28;20058;-75
2021/06/13 05:04:44;;;;;;;517.90;357.15;;;;;;;;;;5050814;28;20029;-75
2021/06/13 05:07:23;;;;;;;516.13;352.50;;;;;;;;;;5067860;28;20379;-75
2021/06/13 05:09:49;;;;;;;514.55;349.08;;;;;;;;;;5044700;28;20071;-74
2021/06/13 05:12:15;;;;;;;516.53;356.38;;;;;;;;;;5071982;28;20399;-74
2021/06/13 05:14:41;;;;;;;515.55;351.00;;;;;;;;;;5071680;28;20032;-74
2021/06/13 05:17:07;;;;;;;517.22;362.13;;;;;;;;;;5073163;28;20051;-74
2021/06/13 05:19:42;;;;;;;512.03;357.85;;;;;;;;;;5047359;28;20029;-75
2021/06/13 05:22:08;;;;;;;511.27;357.52;;;;;;;;;;5063509;28;20464;-75
2021/06/13 05:24:35;;;;;;;518.42;372.70;;;;;;;;;;5037939;28;20028;-74
2021/06/13 05:27:02;;;;;;;522.92;373.00;;;;;;;;;;5070039;28;20037;-75
2021/06/13 05:29:30;;;;;;;516.58;367.38;;;;;;;;;;5054548;28;20396;-74
2021/06/13 05:31:56;;;;;;;513.85;362.45;;;;;;;;;;5056494;28;20021;-74
2021/06/13 05:34:22;;;;;;;523.97;381.65;;;;;;;;;;5076841;28;20160;-75
2021/06/13 05:36:48;;;;;;;527.28;376.00;;;;;;;;;;5076586;28;20529;-75
2021/06/13 05:39:14;;;;;;;517.28;367.10;;;;;;;;;;5074133;28;20027;-74
2021/06/13 05:41:40;;;;;;;515.90;368.95;;;;;;;;;;5051290;28;20508;-74
2021/06/13 05:44:18;;;;;;;522.45;375.08;;;;;;;;;;5060380;28;20024;-75
2021/06/13 05:46:44;;;;;;;520.10;369.13;;;;;;;;;;5074893;28;20483;-74
2021/06/13 05:49:10;;;;;;;519.97;371.08;;;;;;;;;;5055502;28;20114;-75
2021/06/13 05:51:36;;;;;;;519.25;377.35;;;;;;;;;;5077387;28;20107;-75
2021/06/13 05:54:02;;;;;;;515.90;376.67;;;;;;;;;;5062765;28;20031;-73
2021/06/13 05:56:29;;;;;;;521.78;381.98;;;;;;;;;;5051335;28;20036;-75
2021/06/13 05:58:55;;;;;;;522.50;379.85;;;;;;;;;;5061120;28;20364;-74
2021/06/13 06:01:22;;;;;;;521.92;380.27;;;;;;;;;;5064398;28;20025;-75
2021/06/13 06:03:47;;;;;;;517.58;379.08;;;;;;;;;;5047318;28;20025;-75
2021/06/13 06:06:13;;;;;;;519.00;382.88;;;;;;;;;;5072411;28;20032;-75
2021/06/13 06:08:59;;;;;;;518.92;386.48;;;;;;;;;;5043487;28;20104;-74
2021/06/13 06:11:26;;;;;;;521.22;378.38;;;;;;;;;;5055559;28;20048;-75
2021/06/13 06:13:53;;;;;;;522.63;389.40;;;;;;;;;;5067454;28;20021;-74
2021/06/13 06:16:20;;;;;;;519.92;388.63;;;;;;;;;;5071522;28;20033;-75
2021/06/13 06:18:46;;;;;;;514.95;387.42;;;;;;;;;;5069702;28;20029;-75
2021/06/13 06:21:12;;;;;;;513.92;384.00;;;;;;;;;;5060782;28;20457;-75
2021/06/13 06:23:38;;;;;;;513.70;385.63;;;;;;;;;;5064132;28;20385;-74
2021/06/13 06:26:04;;;;;;;512.58;384.30;;;;;;;;;;5060506;28;20083;-75
2021/06/13 06:28:30;;;;;;;513.92;387.13;;;;;;;;;;5070166;28;20033;-75
2021/06/13 06:30:59;;;;;;;517.03;396.27;;;;;;;;;;5068745;28;20016;-74
2021/06/13 06:33:30;;;;;;;522.90;404.77;;;;;;;;;;5016889;28;20051;-75
2021/06/13 06:35:56;;;;;;;515.45;391.45;;;;;;;;;;4996245;28;20072;-74
2021/06/13 06:38:22;;;;;;;518.58;397.80;;;;;;;;;;4985095;28;20030;-74
2021/06/13 06:40:48;;;;;;;522.05;403.83;;;;;;;;;;4988201;28;20095;-74
2021/06/13 06:43:14;;;;;;;522.10;409.55;;;;;;;;;;4985301;28;20420;-74
2021/06/13 06:45:40;;;;;;;530.03;413.55;;;;;;;;;;4972793;28;20163;-74
2021/06/13 06:48:06;;;;;;;525.85;412.17;;;;;;;;;;4990947;28;20026;-75
2021/06/13 06:50:32;;;;;;;523.60;407.55;;;;;;;;;;4988584;28;20123;-74
2021/06/13 06:52:58;;;;;;;517.70;399.65;;;;;;;;;;4981360;28;20018;-74
2021/06/13 06:55:24;;;;;;;520.90;408.83;;;;;;;;;;4990343;28;20018;-74
2021/06/13 06:57:51;;;;;;;526.47;415.63;;;;;;;;;;4968903;28;20038;-73
2021/06/13 07:00:17;;;;;;;521.22;407.05;;;;;;;;;;4990093;28;20466;-73
2021/06/13 07:02:45;;;;;;;523.05;411.40;;;;;;;;;;4971342;28;20057;-74
2021/06/13 07:05:12;;;;;;;534.00;410.80;;;;;;;;;;4989126;28;20027;-75
2021/06/13 07:07:38;;;;;;;522.22;417.92;;;;;;;;;;4978906;28;20038;-76
2021/06/13 07:10:05;;;;;;;520.10;412.15;;;;;;;;;;4985365;28;20026;-72
2021/06/13 07:12:31;;;;;;;525.17;421.00;;;;;;;;;;4970974;28;20377;-73
2021/06/13 07:14:58;;;;;;;520.35;413.88;;;;;;;;;;4956902;28;20115;-72
2021/06/13 07:17:24;;;;;;;522.20;410.10;;;;;;;;;;4988798;28;20080;-73
2021/06/13 07:19:50;;;;;;;529.00;422.83;;;;;;;;;;4974542;28;20014;-74
2021/06/13 07:22:16;;;;;;;520.90;412.50;;;;;;;;;;4972490;28;20105;-74
2021/06/13 07:24:44;;;;;;;522.20;414.08;;;;;;;;;;4983831;28;20079;-73
2021/06/13 07:27:13;;;;;;;524.35;420.25;;;;;;;;;;5008009;28;20100;-73
2021/06/13 07:29:39;;;;;;;515.92;412.92;;;;;;;;;;5003747;28;20110;-73
2021/06/13 07:32:05;;;;;;;517.90;417.48;;;;;;;;;;4988334;28;20058;-73
2021/06/13 07:34:33;;;;;;;516.15;417.13;;;;;;;;;;4975133;28;20482;-73
2021/06/13 07:37:02;;;;;;;517.67;422.88;;;;;;;;;;4973618;28;20041;-72
2021/06/13 07:39:30;;;;;;;519.95;425.20;;;;;;;;;;4972157;28;20038;-72
2021/06/13 07:41:58;;;;;;;524.67;423.88;;;;;;;;;;4992619;28;20042;-73
2021/06/13 07:44:24;;;;;;;522.83;424.60;;;;;;;;;;4984900;28;20026;-71
2021/06/13 07:46:50;;;;;;;525.00;432.10;;;;;;;;;;4973130;28;20030;-72
2021/06/13 07:49:18;;;;;;;523.30;429.60;;;;;;;;;;4972590;28;20038;-73
2021/06/13 07:51:44;;;;;;;526.05;430.63;;;;;;;;;;4994269;28;20489;-73
2021/06/13 07:54:10;;;;;;;524.80;441.13;;;;;;;;;;4987370;28;20057;-72
2021/06/13 07:56:36;;;;;;;524.95;440.08;;;;;;;;;;4986094;28;20061;-73
2021/06/13 07:59:02;;;;;;;529.33;443.30;;;;;;;;;;4977513;28;20084;-73
2021/06/13 08:01:40;;;;;;;526.28;444.60;;;;;;;;;;4989718;28;20072;-73
2021/06/13 08:04:06;;;;;;;526.83;444.25;;;;;;;;;;4989051;28;20366;-72
2021/06/13 08:06:32;;;;;;;515.33;432.20;;;;;;;;;;4985019;28;20030;-73
2021/06/13 08:08:59;;;;;;;516.60;439.65;;;;;;;;;;4971374;28;20071;-72
2021/06/13 08:11:26;;;;;;;513.13;423.77;;;;;;;;;;4972592;28;20142;-72
2021/06/13 08:13:52;;;;;;;520.22;431.02;;;;;;;;;;4973876;28;20037;-73
2021/06/13 08:16:18;;;;;;;519.22;429.23;;;;;;;;;;4998782;28;20038;-74
2021/06/13 08:18:44;;;;;;;519.65;434.05;;;;;;;;;;4983893;28;20770;-74
2021/06/13 08:21:10;;;;;;;520.42;442.95;;;;;;;;;;4992070;28;20035;-71
2021/06/13 08:23:36;;;;;;;523.60;441.42;;;;;;;;;;4971808;28;20018;-72
2021/06/13 08:26:02;;;;;;;525.60;450.85;;;;;;;;;;4990406;28;20431;-73
2021/06/13 08:28:28;;;;;;;527.83;454.17;;;;;;;;;;4972977;28;20030;-73
2021/06/13 08:30:54;;;;;;;527.25;451.73;;;;;;;;;;4987585;28;20022;-74
2021/06/13 08:33:21;;;;;;;532.47;463.48;;;;;;;;;;5029050;28;20045;-73
2021/06/13 08:35:47;;;;;;;531.92;461.30;;;;;;;;;;5027977;28;20065;-74
2021/06/13 08:38:13;;;;;;;526.83;464.40;;;;;;;;;;5029233;28;20049;-74
2021/06/13 08:40:39;;;;;;;525.90;466.27;;;;;;;;;;5028216;28;20072;-74
2021/06/13 08:43:12;;;;;;;530.67;463.90;;;;;;;;;;5029738;28;20048;-74
2021/06/13 08:45:38;;;;;;;529.58;464.13;;;;;;;;;;5027329;28;20378;-74
2021/06/13 08:48:05;;;;;;;525.30;461.05;;;;;;;;;;5028999;28;20532;-74
2021/06/13 08:50:33;;;;;;;527.55;467.15;;;;;;;;;;5028274;28;20032;-73
2021/06/13 08:52:59;;;;;;;528.47;468.25;;;;;;;;;;5022555;28;20037;-74
2021/06/13 08:55:27;;;;;;;524.88;464.42;;;;;;;;;;4972648;28;20046;-73
2021/06/13 08:57:55;;;;;;;532.78;473.75;;;;;;;;;;4971723;28;20124;-74
2021/06/13 09:00:23;;;;;;;524.70;463.10;;;;;;;;;;4964958;28;20070;-73
2021/06/13 09:02:49;;;;;;;528.78;470.20;;;;;;;;;;4967880;28;20022;-73
2021/06/13 09:05:19;;;;;;;527.80;467.92;;;;;;;;;;4965521;28;20043;-73
2021/06/13 09:07:45;;;;;;;;;;;;;;;;;;4984348;28;20037;-74
2021/06/13 09:10:11;;;;;;;535.75;468.52;;;;;;;;;;4999327;28;19909;-72
2021/06/13 09:12:37;;;;;;;536.25;477.50;;;;;;;;;;5025261;28;20102;-73
2021/06/13 09:15:09;;;;;;;542.25;483.40;;;;;;;;;;5011648;28;20091;-73
2021/06/13 09:17:42;;;;;;;539.58;481.67;;;;;;;;;;5002916;28;20053;-74
2021/06/13 09:20:09;;;;;;;557.92;499.58;;;;;;;;;;5012288;28;20022;-73
2021/06/13 09:22:36;;;;;;;558.70;500.77;;;;;;;;;;5028594;28;20490;-75
2021/06/13 09:25:14;;;;;;;567.20;509.15;;;;;;;;;;5026533;28;20033;-75
2021/06/13 09:27:42;;;;;;;569.30;511.85;;;;;;;;;;4965189;28;20038;-75
2021/06/13 09:30:10;;;;;;;580.60;522.90;;;;;;;;;;4967335;28;20046;-75
2021/06/13 09:32:54;;;;;;;575.90;518.58;;;;;;;;;;4978606;28;20059;-74
2021/06/13 09:35:29;;;;;;;582.55;525.40;;;;;;;;;;4986806;28;20113;-75
2021/06/13 09:38:05;;;;;;;572.95;516.17;;;;;;;;;;4977022;28;20026;-74
2021/06/13 09:40:31;;;;;;;579.88;522.72;;;;;;;;;;4985157;28;20030;-75
2021/06/13 09:42:59;;;;;;;588.17;530.75;;;;;;;;;;4950536;28;20034;-75
2021/06/13 09:45:35;;;;;;;581.15;524.25;;;;;;;;;;4966898;28;20023;-74
2021/06/13 09:48:01;;;;;;;594.90;537.78;;;;;;;;;;4970502;28;20646;-74
2021/06/13 09:50:44;;;;;;;598.90;542.05;;;;;;;;;;4986619;28;20108;-74
2021/06/13 09:53:22;;;;;;;614.50;557.35;;;;;;;;;;4981083;28;20505;-73
2021/06/13 09:56:11;;;;;;;629.72;571.97;;;;;;;;;;4976460;28;20537;-74
2021/06/13 09:58:46;;;;;;;629.40;571.88;;;;;;;;;;4987002;28;20223;-72
2021/06/13 10:01:12;;;;;;;627.72;570.65;;;;;;;;;;4986152;28;20478;-73
2021/06/13 10:03:38;;;;;;;617.92;560.90;;;;;;;;;;4987154;28;20061;-73
2021/06/13 10:06:07;;;;;;;625.15;567.75;;;;;;;;;;5066899;28;20036;-73
2021/06/13 10:08:34;;;;;;;616.13;559.50;;;;;;;;;;5047712;28;20063;-73
2021/06/13 10:11:03;;;;;;;618.03;561.17;;;;;;;;;;5059209;28;20024;-73
2021/06/13 10:13:43;;;;;;;631.22;573.92;;;;;;;;;;5051102;28;20032;-74
2021/06/13 10:16:11;;;;;;;639.97;582.80;;;;;;;;;;5065174;28;20556;-74
2021/06/13 10:18:42;;;;;;;646.47;589.30;;;;;;;;;;5052019;28;20028;-73
2021/06/13 10:21:12;;;;;;;663.15;605.70;;;;;;;;;;5045447;28;20040;-74
2021/06/13 10:23:40;;;;;;;671.90;614.38;;;;;;;;;;5050203;28;20045;-74
2021/06/13 10:26:07;;;;;;;686.75;629.20;;;;;;;;;;5047368;28;20081;-71
2021/06/13 10:28:34;;;;;;;693.50;635.90;;;;;;;;;;5047810;28;20374;-71
2021/06/13 10:31:00;;;;;;;722.47;663.92;;;;;;;;;;5050558;28;20028;-73
2021/06/13 10:33:26;;;;;;;728.13;669.55;;;;;;;;;;5038039;28;20172;-71
2021/06/13 10:35:52;;;;;;;722.00;663.63;;;;;;;;;;5057777;28;20028;-71
2021/06/13 10:38:18;;;;;;;716.22;658.00;;;;;;;;;;4957509;28;20057;-72
2021/06/13 10:40:44;;;;;;;716.25;657.55;;;;;;;;;;4964995;28;20522;-70
2021/06/13 10:43:20;;;;;;;720.35;661.55;;;;;;;;;;4987123;28;20091;-73
2021/06/13 10:45:46;;;;;;;712.47;653.90;;;;;;;;;;4985286;28;20359;-71
2021/06/13 10:48:12;;;;;;;704.80;646.63;;;;;;;;;;4961078;28;20027;-72
2021/06/13 10:50:39;;;;;;;718.80;660.20;;;;;;;;;;4958260;28;20458;-71
2021/06/13 10:53:06;;;;;;;713.42;654.90;;;;;;;;;;4978995;28;20022;-71
2021/06/13 10:55:52;;;;;;;720.85;662.13;;;;;;;;;;4963827;28;20160;-73
2021/06/13 10:58:37;;;;;;;751.45;691.35;;;;;;;;;;4970037;28;20179;-73
2021/06/13 11:01:21;;;;;;;765.00;704.67;;;;;;;;;;4982725;28;20031;-74
2021/06/13 11:04:01;;;;;;;730.22;671.85;;;;;;;;;;4962877;28;20035;-73
2021/06/13 11:06:39;;;;;;;723.22;664.97;;;;;;;;;;4991025;28;20492;-72
2021/06/13 11:09:06;;;;;;;733.53;675.13;;;;;;;;;;4982579;28;20474;-72
2021/06/13 11:11:41;;;;;;;745.25;686.35;;;;;;;;;;4978593;28;20126;-74
2021/06/13 11:14:24;;;;;;;740.28;681.97;;;;;;;;;;4973732;28;20037;-74
2021/06/13 11:16:52;;;;;;;750.53;691.83;;;;;;;;;;5014646;28;20037;-73
2021/06/13 11:19:31;;;;;;;751.72;692.67;;;;;;;;;;4988864;28;20027;-74
2021/06/13 11:22:16;;;;;;;752.78;694.40;;;;;;;;;;4962382;28;20031;-74
2021/06/13 11:24:46;;;;;;;761.63;703.15;;;;;;;;;;4963327;28;20094;-74
2021/06/13 11:27:13;;;;;;;765.42;707.05;;;;;;;;;;4973441;28;20033;-74
2021/06/13 11:29:52;;;;;;;775.15;716.08;;;;;;;;;;4961759;28;20037;-74
2021/06/13 11:32:50;;;;;;;776.13;717.50;;;;;;;;;;4962439;28;20673;-74
2021/06/13 11:35:43;;;;;;;763.90;705.65;;;;;;;;;;4968854;28;20129;-73
2021/06/13 11:38:17;;;;;;;774.20;715.53;;;;;;;;;;4986616;28;20046;-73
2021/06/13 11:40:48;;;;;;;765.40;706.85;;;;;;;;;;4986558;28;20110;-73
2021/06/13 11:43:16;;;;;;;779.40;720.30;;;;;;;;;;4982607;28;20023;-73
2021/06/13 11:45:53;;;;;;;755.67;697.25;;;;;;;;;;4973838;28;20069;-74
2021/06/13 11:48:20;;;;;;;755.70;697.70;;;;;;;;;;4972864;28;20050;-74
2021/06/13 11:51:06;;;;;;;759.20;701.15;;;;;;;;;;4965164;28;20079;-73
2021/06/13 11:53:48;;;;;;;751.72;693.30;;;;;;;;;;4966512;28;20033;-73
2021/06/13 11:56:33;;;;;;;733.33;675.70;;;;;;;;;;4964365;28;20031;-73
2021/06/13 11:58:59;;;;;;;739.38;681.53;;;;;;;;;;4978995;28;20391;-75
2021/06/13 12:01:25;;;;;;;749.97;691.55;;;;;;;;;;4987103;28;20076;-73
2021/06/13 12:03:51;;;;;;;740.80;682.72;;;;;;;;;;4965156;28;20022;-74
2021/06/13 12:06:21;;;;;;;759.25;700.60;;;;;;;;;;4966781;28;20076;-74
2021/06/13 12:08:47;;;;;;;;;;;;;;;;;;4975381;28;20027;-73
2021/06/13 12:11:32;;;;;;;752.63;694.53;;;;;;;;;;4977277;28;19913;-74
2021/06/13 12:13:59;;;;;;;762.45;704.03;;;;;;;;;;4959682;28;20031;-74
2021/06/13 12:16:28;;;;;;;763.45;705.40;;;;;;;;;;4982773;28;20133;-74
2021/06/13 12:19:02;;;;;;;777.15;718.75;;;;;;;;;;4968720;28;20023;-73
2021/06/13 12:21:28;;;;;;;756.92;699.40;;;;;;;;;;4978091;28;20643;-74
2021/06/13 12:24:02;;;;;;;777.70;719.08;;;;;;;;;;4964787;28;20382;-74
2021/06/13 12:29:24;;;;;;;778.20;719.13;;;;;;;;;;4975611;28;20027;-74
2021/06/13 12:31:50;;;;;;;776.08;718.10;;;;;;;;;;4978025;28;20071;-74
2021/06/13 12:34:20;;;;;;;774.28;716.20;;;;;;;;;;4981316;28;20057;-72
2021/06/13 12:36:55;;;;;;;772.20;713.88;;;;;;;;;;4967001;28;20401;-74
2021/06/13 12:39:25;;;;;;;774.13;715.70;;;;;;;;;;4976284;28;20035;-75
2021/06/13 12:41:51;;;;;;;776.22;716.75;;;;;;;;;;4976328;28;20050;-74
2021/06/13 12:44:17;;;;;;;775.25;716.58;;;;;;;;;;4970344;28;20062;-74
2021/06/13 12:46:43;;;;;;;756.58;698.90;;;;;;;;;;4975860;28;20045;-74
2021/06/13 12:49:09;;;;;;;771.47;713.25;;;;;;;;;;4974149;28;20069;-74
2021/06/13 12:51:36;;;;;;;762.40;704.17;;;;;;;;;;4967629;28;20057;-76
2021/06/13 12:54:13;;;;;;;756.63;699.13;;;;;;;;;;4975192;28;20023;-75
2021/06/13 12:56:40;;;;;;;761.90;704.35;;;;;;;;;;4972978;28;20096;-75
2021/06/13 12:59:07;;;;;;;766.67;708.67;;;;;;;;;;4976487;28;20114;-74
2021/06/13 13:01:33;;;;;;;760.85;702.72;;;;;;;;;;4961113;28;20091;-75
2021/06/13 13:04:00;;;;;;;764.75;706.40;;;;;;;;;;4981388;28;20022;-74
2021/06/13 13:06:26;;;;;;;766.88;708.55;;;;;;;;;;4975572;28;20026;-74
2021/06/13 13:08:52;;;;;;;764.58;706.10;;;;;;;;;;4986269;28;20054;-74
2021/06/13 13:11:28;;;;;;;760.53;702.10;;;;;;;;;;4979874;28;20085;-74
2021/06/13 13:14:00;;;;;;;759.58;701.13;;;;;;;;;;4964250;28;20546;-74
2021/06/13 13:16:33;;;;;;;768.30;709.20;;;;;;;;;;4960710;28;20427;-74
2021/06/13 13:19:00;;;;;;;736.95;679.15;;;;;;;;;;4972897;28;20019;-74
2021/06/13 13:21:35;;;;;;;733.97;676.20;;;;;;;;;;4980566;28;20029;-74
2021/06/13 13:24:02;;;;;;;720.20;662.97;;;;;;;;;;4977827;28;20505;-74
2021/06/13 13:26:29;;;;;;;729.28;671.75;;;;;;;;;;4982706;28;20058;-74
2021/06/13 13:28:56;;;;;;;728.35;670.85;;;;;;;;;;4955970;28;20240;-75
2021/06/13 13:31:23;;;;;;;716.65;659.70;;;;;;;;;;4962232;28;20041;-74
2021/06/13 13:33:57;;;;;;;722.83;665.63;;;;;;;;;;4966250;28;20101;-75
2021/06/13 13:36:40;;;;;;;735.50;677.67;;;;;;;;;;5022586;28;20125;-76
2021/06/13 13:39:15;;;;;;;739.80;681.88;;;;;;;;;;5030917;28;20042;-75
2021/06/13 13:41:42;;;;;;;735.38;677.47;;;;;;;;;;5027628;28;20115;-74
2021/06/13 13:44:09;;;;;;;739.58;681.70;;;;;;;;;;5036985;28;20027;-75
2021/06/13 13:46:40;;;;;;;730.50;672.83;;;;;;;;;;4960090;28;20477;-76
2021/06/13 13:49:06;;;;;;;710.70;653.67;;;;;;;;;;5041324;28;20110;-75
2021/06/13 13:51:46;;;;;;;708.15;650.88;;;;;;;;;;5031503;28;20529;-75
2021/06/13 13:54:24;;;;;;;733.95;674.80;;;;;;;;;;5027327;28;20421;-75
2021/06/13 13:56:51;;;;;;;716.83;658.78;;;;;;;;;;4962691;28;20038;-74
2021/06/13 13:59:30;;;;;;;703.35;646.03;;;;;;;;;;4959789;28;20331;-75
2021/06/13 14:01:56;;;;;;;725.33;666.57;;;;;;;;;;5041811;28;20039;-74
2021/06/13 14:04:22;;;;;;;719.60;661.33;;;;;;;;;;5027885;28;20275;-75
2021/06/13 14:06:52;;;;;;;722.72;664.15;;;;;;;;;;5026555;28;20035;-75
2021/06/13 14:09:18;;;;;;;715.75;657.30;;;;;;;;;;5026513;28;20038;-75